Air Resources Laboratory banner image
Air Resources Laboratory web site National Oceanic and Atmospheric Administration (NOAA)

in metar


KAID 211155Z AUTO 24006KT 10SM -RA BKN006 OVC010 21/20 A2978 RMK AO2 P0011
 60020 70044 T02050200 10215 20205=
KBAK 211145Z 22008KT 10SM -RA OVC015 20/18 A2984=
KBMG 211153Z 23005KT 10SM SCT009 OVC021 21/21 A2983 RMK AO2 SLP094 70013
 T02110206 10222 20206 51011=
KEKM 211150Z 00000KT 10SM BKN048 19/19 A2977 RMK AO2=
KEVV 211154Z 21010KT 10SM OVC008 21/21 A2987 RMK AO2 RAB27E36 CIG 007V011
 SLP109 P0000 60000 T02110206 10217 20200 53010=
KEYE 211153Z AUTO 23005KT 10SM BKN008 OVC013 21/20 A2980 RMK AO2 CIG 007V010
 SLP083 60024 70054 T02110200 10228 20211 53018=
KFWA 211154Z 00000KT 4SM -RA BR FEW006 SCT041 OVC110 21/21 A2977 RMK AO2 SLP077
 P0015 60055 70198 T02060206 10222 20206 58001=
KGEZ 211153Z AUTO 22009KT 8SM SCT009 OVC015 21/19 A2982 RMK AO2 RAE45 SLP089
 P0000 60003 70039 T02110194 10233 20206 52005=
KGSH 211153Z AUTO 18003KT 6SM -RA BR BKN045 OVC110 19/19 A2977 RMK AO2 SLP077
 P0002 60079 70103 T01940194 10211 20194 55002=
KGUS 211156Z 00000KT 7SM FEW003 BKN009 BKN017 OVC024 20/20 A2977 RMK AO2A
 RAB25E53DZB53E54 SLP080 P0009 60039 70137 T02030203 10219 20201 53005 $=
KGYY 211145Z 27004KT 4SM BR BKN003 21/21 A2977=
KHLB 211155Z AUTO VRB04G11KT 10SM SCT009 BKN013 OVC023 21/21 A2984 RMK A01=
KHNB 211156Z AUTO 20007KT 6SM BR OVC004 21/20 A2987 RMK AO2 SLP111 T02060200
 10222 20194 53010=
KHUF 211153Z 22007KT 10SM FEW007 OVC018 22/21 A2982 RMK AO2 SLP093 60044 70115
 T02170206 10228 20211 53012=
KIND 211154Z 23011KT 9SM BKN009 OVC018 21/20 A2981 RMK AO2 SLP086 60012 70035
 T02110200 10222 20206 53016=
KLAF 211154Z 26004KT 2SM BR OVC004 21/21 A2978 RMK AO2 SLP079 60008 70096
 T02060206 10211 20206 53009=
KMIE 211153Z 29007KT 4SM -RA BR BKN006 BKN012 OVC020 22/20 A2976 RMK AO2
 RAB1058 CIG 004V010 SLP067 P0028 60055 70095 T02170200 10222 20211 55007=
KSBN 211154Z 00000KT 3SM BR OVC002 19/19 A2978 RMK AO2 SLP078 60051 70060
 T01890189 10206 20183 53002=
KVPZ 211156Z AUTO 32003KT 6SM BR SCT085 20/18 A2978 RMK AO2 SLP080 60037 70178
 T02000178 10211 20194 53002=